Time;durP1;ratioP1;P1;durP2;ratioP2;P2;SDS_P1;SDS_P2;PMS_P1;PMS_P2;Temp;Humidity;BMP_temperature;BMP_pressure;BME280_temperature;BME280_humidity;BME280_pressure;Samples;Min_cycle;Max_cycle;Signal;HPM_P1;HPM_P2
2022/12/14 00:01:51;;;;;;;23.03;12.07;;;;;;;;;;5044168;28;20182;-77
2022/12/14 00:04:16;;;;;;;17.43;11.77;;;;;;;;;;5043182;28;20208;-78
2022/12/14 00:06:41;;;;;;;22.90;13.17;;;;;;;;;;5045745;28;20178;-77
2022/12/14 00:09:06;;;;;;;19.07;12.67;;;;;;;;;;5052492;28;20178;-77
2022/12/14 00:11:32;;;;;;;26.70;13.03;;;;;;;;;;5050635;28;20257;-77
2022/12/14 00:13:59;;;;;;;18.50;10.90;;;;;;;;;;5049286;28;20192;-77
2022/12/14 00:16:26;;;;;;;17.37;12.43;;;;;;;;;;5047220;28;20178;-77
2022/12/14 00:18:52;;;;;;;23.20;11.77;;;;;;;;;;5039169;28;20217;-77
2022/12/14 00:21:18;;;;;;;22.00;12.57;;;;;;;;;;5047545;28;20182;-78
2022/12/14 00:23:44;;;;;;;20.30;12.83;;;;;;;;;;5058256;28;20174;-77
2022/12/14 00:26:09;;;;;;;20.50;13.80;;;;;;;;;;5044897;28;20174;-77
2022/12/14 00:28:35;;;;;;;22.13;13.70;;;;;;;;;;5042089;28;20185;-77
2022/12/14 00:31:00;;;;;;;19.80;12.10;;;;;;;;;;5049598;28;20209;-77
2022/12/14 00:33:25;;;;;;;20.97;12.90;;;;;;;;;;5042659;28;20233;-77
2022/12/14 00:35:51;;;;;;;20.50;13.27;;;;;;;;;;5053467;28;20268;-77
2022/12/14 00:38:16;;;;;;;20.00;12.37;;;;;;;;;;5047926;28;20209;-77
2022/12/14 00:40:41;;;;;;;19.73;13.63;;;;;;;;;;5049546;28;20269;-78
2022/12/14 00:43:06;;;;;;;18.57;13.20;;;;;;;;;;5051506;28;20231;-77
2022/12/14 00:45:31;;;;;;;18.93;11.67;;;;;;;;;;5049507;28;20175;-77
2022/12/14 00:47:57;;;;;;;16.43;11.87;;;;;;;;;;5050038;28;20241;-78
2022/12/14 00:50:22;;;;;;;19.40;12.97;;;;;;;;;;5044702;28;20186;-77
2022/12/14 00:52:47;;;;;;;17.27;11.53;;;;;;;;;;5052842;28;20182;-77
2022/12/14 00:55:12;;;;;;;16.37;12.60;;;;;;;;;;5047158;28;20182;-77
2022/12/14 00:57:37;;;;;;;21.90;12.67;;;;;;;;;;5051028;28;20229;-77
2022/12/14 01:00:04;;;;;;;18.10;11.93;;;;;;;;;;5051906;28;20181;-77
2022/12/14 01:02:29;;;;;;;20.33;14.83;;;;;;;;;;5046046;28;20170;-77
2022/12/14 01:04:54;;;;;;;20.57;14.70;;;;;;;;;;5054977;28;20250;-76
2022/12/14 01:07:19;;;;;;;23.13;15.27;;;;;;;;;;5048538;28;20181;-76
2022/12/14 01:09:45;;;;;;;20.47;12.00;;;;;;;;;;5047657;28;20174;-77
2022/12/14 01:12:10;;;;;;;19.83;12.63;;;;;;;;;;5043436;28;20178;-77
2022/12/14 01:14:35;;;;;;;19.17;12.70;;;;;;;;;;5045524;28;20240;-77
2022/12/14 01:17:00;;;;;;;21.40;13.27;;;;;;;;;;5047003;28;20201;-77
2022/12/14 01:19:25;;;;;;;24.50;13.60;;;;;;;;;;5051213;28;20182;-77
2022/12/14 01:21:52;;;;;;;26.50;14.37;;;;;;;;;;5045792;28;20179;-77
2022/12/14 01:24:17;;;;;;;19.57;12.17;;;;;;;;;;5048058;28;20174;-77
2022/12/14 01:26:42;;;;;;;20.93;13.50;;;;;;;;;;5049865;28;20244;-77
2022/12/14 01:29:10;;;;;;;23.43;13.77;;;;;;;;;;5048626;28;20177;-77
2022/12/14 01:31:36;;;;;;;21.53;15.07;;;;;;;;;;5043171;28;20187;-77
2022/12/14 01:34:01;;;;;;;21.00;13.70;;;;;;;;;;5017620;28;20318;-77
2022/12/14 01:36:28;;;;;;;24.87;13.87;;;;;;;;;;5009746;28;20238;-78
2022/12/14 01:38:55;;;;;;;18.67;13.40;;;;;;;;;;5011051;28;20208;-77
2022/12/14 01:41:25;;;;;;;23.97;13.93;;;;;;;;;;5010650;28;20193;-77
2022/12/14 01:43:55;;;;;;;17.03;11.50;;;;;;;;;;5020172;28;20210;-78
2022/12/14 01:46:29;;;;;;;18.93;13.07;;;;;;;;;;5011178;28;20224;-77
2022/12/14 01:48:56;;;;;;;23.13;14.13;;;;;;;;;;5014577;28;20186;-77
2022/12/14 01:51:23;;;;;;;22.53;14.13;;;;;;;;;;5010207;28;20185;-77
2022/12/14 01:53:48;;;;;;;21.40;13.47;;;;;;;;;;5009531;28;20255;-77
2022/12/14 01:56:14;;;;;;;22.57;14.33;;;;;;;;;;5012176;28;20269;-77
2022/12/14 01:58:39;;;;;;;18.13;12.63;;;;;;;;;;5013693;28;20218;-77
2022/12/14 02:01:04;;;;;;;25.53;16.43;;;;;;;;;;5014744;28;20174;-77
2022/12/14 02:03:35;;;;;;;22.50;14.73;;;;;;;;;;5008779;28;20186;-77
2022/12/14 02:06:08;;;;;;;20.77;13.27;;;;;;;;;;5007175;28;20262;-77
2022/12/14 02:08:33;;;;;;;26.60;12.83;;;;;;;;;;5015677;28;20187;-77
2022/12/14 02:10:59;;;;;;;19.43;13.53;;;;;;;;;;5013116;28;20193;-77
2022/12/14 02:13:26;;;;;;;21.17;14.03;;;;;;;;;;5013772;28;20266;-77
2022/12/14 02:15:51;;;;;;;21.10;15.33;;;;;;;;;;5013025;28;20182;-77
2022/12/14 02:18:18;;;;;;;21.73;14.17;;;;;;;;;;5014176;28;20397;-77
2022/12/14 02:20:47;;;;;;;19.77;13.37;;;;;;;;;;5003454;28;20183;-77
2022/12/14 02:23:22;;;;;;;22.07;13.90;;;;;;;;;;5025785;28;20183;-77
2022/12/14 02:26:20;;;;;;;22.90;14.03;;;;;;;;;;5011815;28;20194;-78
2022/12/14 02:29:04;;;;;;;22.87;13.73;;;;;;;;;;4976581;28;20195;-76
2022/12/14 02:31:38;;;;;;;23.33;14.30;;;;;;;;;;5025173;28;20203;-76
2022/12/14 02:34:17;;;;;;;21.23;14.20;;;;;;;;;;5016187;28;20229;-77
2022/12/14 02:36:56;;;;;;;22.10;14.10;;;;;;;;;;5007518;28;20185;-77
2022/12/14 02:39:37;;;;;;;23.67;15.37;;;;;;;;;;5009928;28;20179;-77
2022/12/14 02:42:05;;;;;;;23.37;14.50;;;;;;;;;;5038363;28;20189;-77
2022/12/14 02:44:38;;;;;;;25.63;15.83;;;;;;;;;;5010844;28;20190;-77
2022/12/14 02:47:08;;;;;;;21.07;14.40;;;;;;;;;;5018793;28;20187;-78
2022/12/14 02:49:33;;;;;;;23.07;15.10;;;;;;;;;;5023746;28;20190;-77
2022/12/14 02:51:58;;;;;;;23.27;15.77;;;;;;;;;;5010630;28;20236;-77
2022/12/14 02:54:31;;;;;;;25.80;16.80;;;;;;;;;;5012690;28;20186;-77
2022/12/14 02:57:04;;;;;;;26.80;16.87;;;;;;;;;;5010882;28;20568;-77
2022/12/14 02:59:31;;;;;;;24.17;15.47;;;;;;;;;;5015229;28;20179;-77
2022/12/14 03:01:59;;;;;;;25.47;16.83;;;;;;;;;;5010273;28;20181;-78
2022/12/14 03:04:24;;;;;;;28.83;16.67;;;;;;;;;;5005753;28;20185;-78
2022/12/14 03:06:59;;;;;;;24.90;16.17;;;;;;;;;;5011040;28;20171;-77
2022/12/14 03:09:27;;;;;;;30.80;18.43;;;;;;;;;;5007706;28;20180;-77
2022/12/14 03:11:57;;;;;;;27.13;16.57;;;;;;;;;;5007887;28;20186;-77
2022/12/14 03:14:26;;;;;;;28.43;17.53;;;;;;;;;;5016559;28;20171;-78
2022/12/14 03:16:52;;;;;;;27.27;17.57;;;;;;;;;;5015049;28;20198;-77
2022/12/14 03:19:17;;;;;;;30.30;18.73;;;;;;;;;;5011177;28;20194;-77
2022/12/14 03:21:45;;;;;;;31.57;20.27;;;;;;;;;;5012582;28;20269;-77
2022/12/14 03:24:12;;;;;;;30.40;19.83;;;;;;;;;;5006178;28;20183;-77
2022/12/14 03:26:58;;;;;;;27.10;18.07;;;;;;;;;;5010893;28;20201;-78
2022/12/14 03:29:28;;;;;;;28.87;18.67;;;;;;;;;;5012682;28;20181;-77
2022/12/14 03:31:55;;;;;;;30.70;18.90;;;;;;;;;;5019175;28;20202;-77
2022/12/14 03:34:24;;;;;;;32.53;19.97;;;;;;;;;;5020602;28;20238;-77
2022/12/14 03:36:54;;;;;;;34.03;19.37;;;;;;;;;;5010850;28;20253;-77
2022/12/14 03:39:22;;;;;;;28.60;18.53;;;;;;;;;;5010372;28;20179;-77
2022/12/14 03:42:06;;;;;;;31.77;20.50;;;;;;;;;;5014080;28;20183;-77
2022/12/14 03:44:47;;;;;;;30.90;19.57;;;;;;;;;;5005116;28;20183;-77
2022/12/14 03:47:33;;;;;;;33.13;20.00;;;;;;;;;;5009513;28;20175;-77
2022/12/14 03:50:03;;;;;;;34.03;20.50;;;;;;;;;;5020035;28;20193;-77
2022/12/14 03:52:34;;;;;;;34.57;21.40;;;;;;;;;;5007393;28;20179;-77
2022/12/14 03:55:06;;;;;;;34.60;17.70;;;;;;;;;;5015206;28;20236;-78
2022/12/14 03:57:35;;;;;;;32.80;21.13;;;;;;;;;;5013697;28;20205;-77
2022/12/14 04:00:02;;;;;;;37.60;20.63;;;;;;;;;;5031166;28;20210;-77
2022/12/14 04:02:27;;;;;;;36.27;21.27;;;;;;;;;;5014972;28;20175;-77
2022/12/14 04:04:52;;;;;;;38.00;22.07;;;;;;;;;;5014755;28;20179;-77
2022/12/14 04:07:21;;;;;;;41.60;20.87;;;;;;;;;;5011168;28;20182;-78
2022/12/14 04:09:46;;;;;;;37.77;21.87;;;;;;;;;;5015187;28;20396;-78
2022/12/14 04:20:39;;;;;;;34.73;22.00;;;;;;;;;;5021242;28;20191;-77
2022/12/14 04:23:08;;;;;;;33.03;20.37;;;;;;;;;;5014387;28;20174;-77
2022/12/14 04:31:12;;;;;;;33.73;20.80;;;;;;;;;;5028998;28;20206;-77
2022/12/14 04:33:45;;;;;;;40.30;22.33;;;;;;;;;;5021970;28;20226;-77
2022/12/14 04:36:12;;;;;;;40.93;24.63;;;;;;;;;;5050053;28;20216;-77
2022/12/14 04:38:38;;;;;;;31.10;20.20;;;;;;;;;;5045031;28;20193;-77
2022/12/14 04:41:07;;;;;;;38.67;22.93;;;;;;;;;;5047163;28;20174;-78
2022/12/14 04:43:35;;;;;;;41.50;23.40;;;;;;;;;;5043151;28;20170;-77
2022/12/14 04:46:05;;;;;;;41.17;23.63;;;;;;;;;;5059734;28;20193;-78
2022/12/14 04:48:30;;;;;;;37.77;22.37;;;;;;;;;;5046019;28;20193;-77
2022/12/14 04:51:00;;;;;;;35.57;22.67;;;;;;;;;;5046762;28;20178;-78
2022/12/14 04:53:27;;;;;;;37.40;20.57;;;;;;;;;;5045751;28;20178;-77
2022/12/14 04:56:04;;;;;;;38.43;22.47;;;;;;;;;;5047858;28;20196;-77
2022/12/14 04:58:29;;;;;;;38.77;22.90;;;;;;;;;;5044256;28;20202;-78
2022/12/14 05:00:55;;;;;;;35.70;20.63;;;;;;;;;;5049927;28;20232;-77
2022/12/14 05:03:26;;;;;;;43.90;23.13;;;;;;;;;;5047453;28;20174;-78
2022/12/14 05:06:04;;;;;;;40.30;22.90;;;;;;;;;;5045837;28;20178;-77
2022/12/14 05:08:37;;;;;;;33.93;19.63;;;;;;;;;;5063656;28;20667;-78
2022/12/14 05:11:08;;;;;;;36.70;22.00;;;;;;;;;;5035723;28;20239;-77
2022/12/14 05:13:38;;;;;;;29.67;17.57;;;;;;;;;;5044368;28;20174;-79
2022/12/14 05:16:03;;;;;;;42.00;24.37;;;;;;;;;;5044208;28;20206;-77
2022/12/14 05:18:29;;;;;;;34.73;20.10;;;;;;;;;;5040157;28;20248;-78
2022/12/14 05:20:54;;;;;;;36.70;20.97;;;;;;;;;;5047979;28;20182;-78
2022/12/14 05:23:19;;;;;;;33.17;19.00;;;;;;;;;;5053076;28;20228;-77
2022/12/14 05:25:44;;;;;;;35.87;21.40;;;;;;;;;;5047198;28;20205;-77
2022/12/14 05:28:10;;;;;;;35.33;20.40;;;;;;;;;;5050585;28;20174;-77
2022/12/14 05:30:35;;;;;;;39.63;21.83;;;;;;;;;;5056854;28;20182;-77
2022/12/14 05:33:00;;;;;;;41.00;24.10;;;;;;;;;;5045020;28;20230;-77
2022/12/14 05:35:26;;;;;;;39.47;22.03;;;;;;;;;;5050827;28;20498;-78
2022/12/14 05:37:51;;;;;;;38.07;20.37;;;;;;;;;;5058141;28;20209;-78
2022/12/14 05:40:16;;;;;;;41.07;23.03;;;;;;;;;;5049442;28;20174;-79
2022/12/14 05:42:42;;;;;;;41.83;23.47;;;;;;;;;;5041487;28;20189;-77
2022/12/14 05:45:08;;;;;;;42.33;22.10;;;;;;;;;;5042525;28;20179;-77
2022/12/14 05:47:33;;;;;;;43.63;24.23;;;;;;;;;;5048907;28;20219;-77
2022/12/14 05:49:59;;;;;;;53.40;30.40;;;;;;;;;;5042013;28;20217;-77
2022/12/14 05:52:25;;;;;;;43.47;26.70;;;;;;;;;;5038508;28;20180;-77
2022/12/14 05:54:50;;;;;;;45.87;23.73;;;;;;;;;;5041002;28;20279;-77
2022/12/14 05:57:15;;;;;;;39.90;23.63;;;;;;;;;;5048271;28;20190;-77
2022/12/14 05:59:40;;;;;;;37.73;23.30;;;;;;;;;;5051178;28;20186;-77
2022/12/14 06:02:06;;;;;;;41.73;24.03;;;;;;;;;;5053577;28;20289;-78
2022/12/14 06:04:31;;;;;;;45.30;23.70;;;;;;;;;;5046966;28;20173;-77
2022/12/14 06:06:56;;;;;;;39.33;22.70;;;;;;;;;;5043131;28;20184;-77
2022/12/14 06:09:22;;;;;;;51.27;24.53;;;;;;;;;;5046137;28;20167;-78
2022/12/14 06:11:48;;;;;;;41.67;24.13;;;;;;;;;;5040689;28;20170;-78
2022/12/14 06:14:13;;;;;;;44.10;23.70;;;;;;;;;;5038591;28;20208;-83
2022/12/14 06:16:40;;;;;;;38.90;22.53;;;;;;;;;;5048870;28;20194;-83
2022/12/14 06:19:05;;;;;;;47.67;23.73;;;;;;;;;;5042760;28;20293;-83
2022/12/14 06:21:31;;;;;;;40.60;23.17;;;;;;;;;;5052087;28;20269;-83
2022/12/14 06:23:57;;;;;;;40.63;22.37;;;;;;;;;;5051755;28;20174;-83
2022/12/14 06:26:23;;;;;;;39.43;23.57;;;;;;;;;;5045267;28;20445;-83
2022/12/14 06:28:48;;;;;;;42.33;23.10;;;;;;;;;;5049173;28;20174;-83
2022/12/14 06:31:15;;;;;;;39.43;22.40;;;;;;;;;;5037662;28;20186;-83
2022/12/14 06:33:40;;;;;;;49.57;29.50;;;;;;;;;;5043063;28;20234;-83
2022/12/14 06:36:05;;;;;;;37.90;22.07;;;;;;;;;;5040383;28;20178;-83
2022/12/14 06:38:31;;;;;;;39.17;23.13;;;;;;;;;;5051057;28;20206;-84
2022/12/14 06:40:56;;;;;;;37.67;22.30;;;;;;;;;;5048690;28;20170;-83
2022/12/14 06:43:23;;;;;;;38.40;21.13;;;;;;;;;;5043786;28;20177;-83
2022/12/14 06:45:48;;;;;;;38.17;22.47;;;;;;;;;;5044512;28;20174;-83
2022/12/14 06:48:14;;;;;;;38.13;21.57;;;;;;;;;;5046189;28;20184;-83
2022/12/14 06:50:39;;;;;;;42.87;25.40;;;;;;;;;;5049908;28;20186;-83
2022/12/14 06:53:04;;;;;;;47.83;26.10;;;;;;;;;;5044569;28;20173;-83
2022/12/14 06:55:30;;;;;;;41.87;24.43;;;;;;;;;;5043893;28;20178;-84
2022/12/14 06:57:55;;;;;;;45.80;24.77;;;;;;;;;;5045099;28;20252;-84
2022/12/14 07:00:21;;;;;;;42.57;25.60;;;;;;;;;;5046145;28;20231;-83
2022/12/14 07:02:46;;;;;;;42.63;25.97;;;;;;;;;;5047402;28;20238;-83
2022/12/14 07:05:12;;;;;;;39.57;23.40;;;;;;;;;;5039893;28;20185;-83
2022/12/14 07:07:37;;;;;;;38.17;21.93;;;;;;;;;;5046321;28;20173;-84
2022/12/14 07:10:03;;;;;;;42.40;22.73;;;;;;;;;;5042163;28;20170;-84
2022/12/14 07:12:28;;;;;;;35.90;20.93;;;;;;;;;;5048643;28;20198;-84
2022/12/14 07:14:53;;;;;;;40.97;24.47;;;;;;;;;;5049561;28;20182;-84
2022/12/14 07:17:19;;;;;;;41.10;22.77;;;;;;;;;;5049154;28;20206;-84
2022/12/14 07:19:44;;;;;;;42.27;23.07;;;;;;;;;;5045290;28;20209;-84
2022/12/14 07:22:09;;;;;;;42.67;24.10;;;;;;;;;;5050173;28;20174;-84
2022/12/14 07:24:34;;;;;;;42.17;23.43;;;;;;;;;;5046738;28;20189;-83
2022/12/14 07:27:00;;;;;;;42.77;23.97;;;;;;;;;;5049270;28;20174;-84
2022/12/14 07:29:25;;;;;;;42.37;26.50;;;;;;;;;;5046203;28;20187;-84
2022/12/14 07:31:50;;;;;;;47.03;23.90;;;;;;;;;;5050879;28;20178;-84
2022/12/14 07:34:15;;;;;;;60.63;33.37;;;;;;;;;;5045676;28;20279;-84
2022/12/14 07:36:42;;;;;;;40.20;23.33;;;;;;;;;;5052395;28;20178;-83
2022/12/14 07:39:09;;;;;;;46.33;24.00;;;;;;;;;;5048736;28;20205;-84
2022/12/14 07:41:34;;;;;;;45.20;22.40;;;;;;;;;;5043142;28;20175;-84
2022/12/14 07:43:59;;;;;;;42.33;23.00;;;;;;;;;;5049175;28;20269;-84
2022/12/14 07:46:26;;;;;;;42.53;24.17;;;;;;;;;;5043093;28;20260;-84
2022/12/14 07:48:52;;;;;;;47.53;25.53;;;;;;;;;;5045538;28;20229;-84
2022/12/14 07:51:19;;;;;;;41.03;24.67;;;;;;;;;;5049633;28;20207;-84
2022/12/14 07:53:44;;;;;;;44.60;24.43;;;;;;;;;;5052572;28;20189;-84
2022/12/14 07:56:10;;;;;;;44.00;27.17;;;;;;;;;;5044655;28;20238;-84
2022/12/14 07:58:36;;;;;;;51.93;27.30;;;;;;;;;;5050270;28;20194;-84
2022/12/14 08:01:11;;;;;;;52.17;27.70;;;;;;;;;;5046731;28;20270;-84
2022/12/14 08:03:36;;;;;;;41.73;24.00;;;;;;;;;;5047847;28;20175;-84
2022/12/14 08:06:06;;;;;;;45.40;25.73;;;;;;;;;;5048470;28;20208;-84
2022/12/14 08:08:31;;;;;;;44.90;25.23;;;;;;;;;;5048094;28;20183;-84
2022/12/14 08:10:57;;;;;;;39.43;23.40;;;;;;;;;;5051253;28;20178;-84
2022/12/14 08:13:22;;;;;;;44.87;24.70;;;;;;;;;;5047305;28;20179;-84
2022/12/14 08:15:47;;;;;;;50.93;26.67;;;;;;;;;;5049833;28;20181;-84
2022/12/14 08:18:12;;;;;;;46.83;25.80;;;;;;;;;;5049718;28;20209;-84
2022/12/14 08:20:37;;;;;;;30.17;18.63;;;;;;;;;;5049595;28;20478;-85
2022/12/14 08:23:02;;;;;;;31.03;16.40;;;;;;;;;;5045860;28;20179;-84
2022/12/14 08:25:28;;;;;;;22.97;14.50;;;;;;;;;;5051372;28;20175;-84
2022/12/14 08:27:53;;;;;;;30.17;17.70;;;;;;;;;;5046250;28;20332;-84
2022/12/14 08:30:18;;;;;;;37.13;19.63;;;;;;;;;;5048484;28;20183;-84
2022/12/14 08:32:43;;;;;;;28.43;15.87;;;;;;;;;;5050706;28;20231;-85
2022/12/14 08:35:09;;;;;;;33.97;19.07;;;;;;;;;;5050302;28;20183;-85
2022/12/14 08:37:34;;;;;;;32.17;19.90;;;;;;;;;;5045255;28;20196;-85
2022/12/14 08:39:59;;;;;;;35.80;20.10;;;;;;;;;;5045178;28;20178;-85
2022/12/14 08:42:24;;;;;;;39.77;24.60;;;;;;;;;;5045338;28;20171;-85
2022/12/14 08:44:49;;;;;;;32.47;19.50;;;;;;;;;;5047352;28;20266;-87
2022/12/14 08:47:15;;;;;;;36.13;21.87;;;;;;;;;;5040792;28;20266;-87
2022/12/14 08:49:40;;;;;;;41.60;19.83;;;;;;;;;;5049585;28;20178;-88
2022/12/14 08:52:05;;;;;;;38.60;21.33;;;;;;;;;;5044505;28;20175;-87
2022/12/14 08:54:30;;;;;;;35.70;20.07;;;;;;;;;;5049214;28;20176;-88
2022/12/14 08:56:56;;;;;;;32.87;18.90;;;;;;;;;;5048874;28;20394;-89
2022/12/14 08:59:21;;;;;;;36.07;19.60;;;;;;;;;;5052108;28;20182;-88
2022/12/14 09:01:47;;;;;;;37.20;20.63;;;;;;;;;;5043195;28;20172;-86
2022/12/14 09:04:12;;;;;;;37.20;19.50;;;;;;;;;;5042861;28;20176;-89
2022/12/14 09:06:38;;;;;;;45.70;25.07;;;;;;;;;;5044362;28;20186;-88
2022/12/14 09:09:04;;;;;;;43.67;25.90;;;;;;;;;;5045891;28;20193;-85
2022/12/14 09:11:29;;;;;;;51.03;25.20;;;;;;;;;;5046973;28;20179;-87
2022/12/14 09:13:55;;;;;;;46.77;25.67;;;;;;;;;;5041101;28;20193;-89
2022/12/14 09:16:21;;;;;;;40.30;23.17;;;;;;;;;;5048499;28;20209;-87
2022/12/14 09:18:47;;;;;;;52.23;25.50;;;;;;;;;;5047017;28;20209;-88
2022/12/14 09:21:12;;;;;;;54.37;24.73;;;;;;;;;;5044372;28;20189;-87
2022/12/14 09:23:38;;;;;;;42.10;23.00;;;;;;;;;;5052221;28;20258;-87
2022/12/14 09:26:05;;;;;;;37.93;23.23;;;;;;;;;;5050681;28;20175;-87
2022/12/14 09:28:30;;;;;;;42.37;23.03;;;;;;;;;;5052905;28;20186;-88
2022/12/14 09:30:57;;;;;;;48.03;25.17;;;;;;;;;;5049814;28;20281;-86
2022/12/14 09:33:23;;;;;;;51.27;27.30;;;;;;;;;;5047647;28;20270;-87
2022/12/14 09:35:48;;;;;;;59.23;29.53;;;;;;;;;;5046007;28;20215;-87
2022/12/14 09:38:13;;;;;;;53.90;27.53;;;;;;;;;;5043545;28;20205;-86
2022/12/14 09:40:41;;;;;;;64.73;30.80;;;;;;;;;;5048052;28;20188;-86
2022/12/14 09:43:10;;;;;;;78.57;39.20;;;;;;;;;;5032790;28;20269;-85
2022/12/14 09:45:41;;;;;;;160.53;76.97;;;;;;;;;;5042494;28;20270;-85
2022/12/14 09:48:10;;;;;;;94.07;46.90;;;;;;;;;;5046731;28;20218;-85
2022/12/14 09:50:36;;;;;;;57.07;32.70;;;;;;;;;;5045125;28;20265;-84
2022/12/14 09:53:04;;;;;;;54.90;29.67;;;;;;;;;;5046045;28;20270;-84
2022/12/14 09:55:48;;;;;;;48.07;27.10;;;;;;;;;;5046886;28;20226;-84
2022/12/14 09:58:21;;;;;;;58.73;28.10;;;;;;;;;;5043672;28;20203;-84
2022/12/14 10:00:58;;;;;;;43.13;24.03;;;;;;;;;;5044823;28;20198;-83
2022/12/14 10:03:23;;;;;;;74.50;36.77;;;;;;;;;;5044903;28;20188;-84
2022/12/14 10:05:58;;;;;;;80.10;39.73;;;;;;;;;;5043128;28;20202;-84
2022/12/14 10:08:42;;;;;;;52.30;27.33;;;;;;;;;;5044220;28;20175;-83
2022/12/14 10:11:34;;;;;;;58.33;27.53;;;;;;;;;;5048338;28;20264;-84
2022/12/14 10:14:02;;;;;;;50.93;27.00;;;;;;;;;;5040046;28;20196;-84
2022/12/14 10:16:33;;;;;;;54.10;26.37;;;;;;;;;;5047910;28;20180;-84
2022/12/14 10:19:09;;;;;;;51.60;22.83;;;;;;;;;;5042503;28;20209;-83
2022/12/14 10:21:41;;;;;;;51.73;22.70;;;;;;;;;;5052221;28;20168;-83
2022/12/14 10:24:11;;;;;;;42.47;19.53;;;;;;;;;;5043770;28;20175;-83
2022/12/14 10:26:45;;;;;;;33.97;17.63;;;;;;;;;;5041829;28;20185;-83
2022/12/14 10:29:16;;;;;;;44.00;19.97;;;;;;;;;;5046566;28;20207;-83
2022/12/14 10:31:55;;;;;;;45.83;18.57;;;;;;;;;;5046889;28;20177;-83
2022/12/14 10:34:22;;;;;;;49.67;23.83;;;;;;;;;;5064672;28;20242;-83
2022/12/14 10:37:00;;;;;;;66.67;33.27;;;;;;;;;;5047606;28;20196;-83
2022/12/14 10:39:30;;;;;;;66.07;32.63;;;;;;;;;;5047955;28;20206;-83
2022/12/14 10:42:02;;;;;;;53.27;27.10;;;;;;;;;;5051604;28;20247;-83
2022/12/14 10:44:46;;;;;;;54.13;25.87;;;;;;;;;;5046326;28;20173;-83
2022/12/14 10:47:11;;;;;;;46.57;26.93;;;;;;;;;;5042554;28;20426;-83
2022/12/14 10:49:41;;;;;;;64.05;30.77;;;;;;;;;;5048988;28;20238;-83
2022/12/14 10:52:15;;;;;;;60.00;28.30;;;;;;;;;;5044573;28;20218;-83
2022/12/14 10:54:46;;;;;;;56.63;27.97;;;;;;;;;;5046359;28;20168;-82
2022/12/14 10:57:19;;;;;;;65.63;29.97;;;;;;;;;;5047597;28;20201;-83
2022/12/14 10:59:44;;;;;;;76.00;33.70;;;;;;;;;;5044017;28;20183;-83
2022/12/14 11:02:15;;;;;;;72.77;33.67;;;;;;;;;;5043975;28;20236;-83
2022/12/14 11:04:59;;;;;;;87.07;35.20;;;;;;;;;;5039036;28;20183;-83
2022/12/14 11:07:35;;;;;;;58.77;28.53;;;;;;;;;;5051224;28;20178;-82
2022/12/14 11:10:13;;;;;;;68.97;31.57;;;;;;;;;;5051115;28;20210;-83
2022/12/14 11:12:38;;;;;;;64.33;31.73;;;;;;;;;;5047221;28;20191;-83
2022/12/14 11:15:05;;;;;;;77.10;33.87;;;;;;;;;;5044239;28;20177;-83
2022/12/14 11:17:30;;;;;;;87.80;39.47;;;;;;;;;;5045388;28;20344;-83
2022/12/14 11:20:22;;;;;;;70.97;34.17;;;;;;;;;;5043423;28;20265;-83
2022/12/14 11:22:49;;;;;;;79.53;31.57;;;;;;;;;;5045605;28;20185;-83
2022/12/14 11:25:29;;;;;;;71.63;32.97;;;;;;;;;;5045465;28;20182;-83
2022/12/14 11:27:55;;;;;;;71.03;33.47;;;;;;;;;;5044824;28;20377;-83
2022/12/14 11:30:20;;;;;;;94.13;38.00;;;;;;;;;;5048615;28;20215;-83
2022/12/14 11:32:47;;;;;;;75.63;34.20;;;;;;;;;;5046053;28;20299;-83
2022/12/14 11:35:16;;;;;;;68.00;32.83;;;;;;;;;;5046691;28;20223;-83
2022/12/14 11:37:41;;;;;;;70.37;33.73;;;;;;;;;;5044885;28;20200;-83
2022/12/14 11:40:17;;;;;;;70.67;31.47;;;;;;;;;;5046900;28;20177;-83
2022/12/14 11:42:46;;;;;;;72.80;32.87;;;;;;;;;;5048042;28;20233;-83
2022/12/14 11:45:23;;;;;;;82.73;35.23;;;;;;;;;;5045630;28;20177;-83
2022/12/14 11:48:08;;;;;;;87.03;36.43;;;;;;;;;;5043510;28;20213;-83
2022/12/14 11:50:33;;;;;;;85.53;35.07;;;;;;;;;;5041423;28;20388;-83
2022/12/14 11:53:02;;;;;;;74.57;33.30;;;;;;;;;;5046386;28;20244;-84
2022/12/14 11:55:28;;;;;;;76.97;34.47;;;;;;;;;;5044278;28;20181;-83
2022/12/14 11:57:58;;;;;;;62.70;30.87;;;;;;;;;;5043390;28;20208;-83
2022/12/14 12:00:25;;;;;;;69.60;37.13;;;;;;;;;;5050556;28;20183;-83
2022/12/14 12:02:58;;;;;;;79.50;36.17;;;;;;;;;;5046902;28;20304;-83
2022/12/14 12:05:23;;;;;;;83.80;40.17;;;;;;;;;;5041227;28;20174;-83
2022/12/14 12:07:48;;;;;;;65.47;31.83;;;;;;;;;;5048539;28;20191;-84
2022/12/14 12:10:23;;;;;;;72.95;35.55;;;;;;;;;;5045916;28;20277;-83
2022/12/14 12:12:50;;;;;;;75.13;38.00;;;;;;;;;;5049302;28;20254;-84
2022/12/14 12:15:17;;;;;;;71.00;33.30;;;;;;;;;;5046701;28;20180;-83
2022/12/14 12:17:43;;;;;;;54.53;28.10;;;;;;;;;;5051126;28;20279;-84
2022/12/14 12:20:17;;;;;;;39.73;21.63;;;;;;;;;;5043260;28;20223;-84
2022/12/14 12:22:43;;;;;;;39.33;22.37;;;;;;;;;;5051519;28;20187;-84
2022/12/14 12:25:13;;;;;;;37.57;18.90;;;;;;;;;;5048268;28;20243;-84
2022/12/14 12:27:38;;;;;;;32.30;17.17;;;;;;;;;;5051546;28;20272;-84
2022/12/14 12:30:05;;;;;;;29.00;18.03;;;;;;;;;;5048267;28;20276;-85
2022/12/14 12:32:45;;;;;;;24.47;15.80;;;;;;;;;;5047114;28;20184;-84
2022/12/14 12:35:21;;;;;;;28.07;16.50;;;;;;;;;;5013289;28;20192;-85
2022/12/14 12:37:54;;;;;;;25.07;16.57;;;;;;;;;;5017349;28;20247;-84
2022/12/14 12:40:28;;;;;;;30.47;18.57;;;;;;;;;;5015607;28;20178;-84
2022/12/14 12:43:14;;;;;;;31.40;19.33;;;;;;;;;;5017549;28;20192;-85
2022/12/14 12:45:43;;;;;;;26.23;18.10;;;;;;;;;;5003970;28;20177;-85
2022/12/14 12:48:14;;;;;;;27.27;17.17;;;;;;;;;;5014123;28;20204;-85
2022/12/14 12:50:43;;;;;;;29.63;19.53;;;;;;;;;;5010008;28;20186;-84
2022/12/14 12:53:17;;;;;;;26.73;15.80;;;;;;;;;;5013508;28;20181;-85
2022/12/14 12:55:46;;;;;;;20.53;12.80;;;;;;;;;;5006877;28;20196;-84
2022/12/14 12:58:31;;;;;;;22.93;13.97;;;;;;;;;;5013921;28;20206;-84
2022/12/14 13:00:59;;;;;;;22.53;15.10;;;;;;;;;;5013266;28;20218;-84
2022/12/14 13:03:27;;;;;;;14.87;10.27;;;;;;;;;;5030667;28;20179;-84
2022/12/14 13:05:54;;;;;;;15.47;10.80;;;;;;;;;;5018271;28;20276;-84
2022/12/14 13:08:27;;;;;;;18.70;12.30;;;;;;;;;;5016330;28;20189;-84
2022/12/14 13:10:54;;;;;;;19.37;12.83;;;;;;;;;;5028896;28;20184;-84
2022/12/14 13:13:25;;;;;;;18.93;12.17;;;;;;;;;;5030581;28;20189;-84
2022/12/14 13:15:53;;;;;;;20.23;13.20;;;;;;;;;;5014792;28;20256;-85
2022/12/14 13:18:30;;;;;;;26.83;18.83;;;;;;;;;;5013206;28;20242;-85
2022/12/14 13:20:55;;;;;;;21.77;15.30;;;;;;;;;;5025540;28;20254;-82
2022/12/14 13:23:21;;;;;;;18.87;12.73;;;;;;;;;;5012927;28;20216;-84
2022/12/14 13:26:02;;;;;;;20.70;14.10;;;;;;;;;;5012138;28;20673;-85
2022/12/14 13:28:30;;;;;;;23.00;15.40;;;;;;;;;;5009553;28;20188;-85
2022/12/14 13:31:16;;;;;;;18.13;14.30;;;;;;;;;;5027930;28;20197;-84
2022/12/14 13:33:41;;;;;;;15.87;11.07;;;;;;;;;;5024176;28;20326;-85
2022/12/14 13:36:20;;;;;;;20.57;12.50;;;;;;;;;;5045589;28;20208;-85
2022/12/14 13:39:05;;;;;;;20.87;13.73;;;;;;;;;;5042270;28;20208;-84
2022/12/14 13:41:45;;;;;;;18.57;13.50;;;;;;;;;;5047142;28;20178;-84
2022/12/14 13:44:34;;;;;;;9.77;5.83;;;;;;;;;;5041410;28;20230;-84
2022/12/14 13:47:04;;;;;;;16.03;12.13;;;;;;;;;;5043347;28;20214;-85
2022/12/14 13:49:30;;;;;;;8.13;4.73;;;;;;;;;;5040473;28;20532;-84
2022/12/14 13:51:56;;;;;;;13.80;10.00;;;;;;;;;;5048514;28;20194;-83
2022/12/14 13:54:27;;;;;;;9.07;8.10;;;;;;;;;;5048718;28;20348;-84
2022/12/14 13:57:03;;;;;;;18.30;12.60;;;;;;;;;;5041605;28;20192;-84
2022/12/14 13:59:31;;;;;;;11.00;8.53;;;;;;;;;;5046531;28;20211;-84
2022/12/14 14:01:58;;;;;;;19.43;12.60;;;;;;;;;;5044634;28;20189;-85
2022/12/14 14:04:24;;;;;;;15.40;10.90;;;;;;;;;;5047657;28;20189;-85
2022/12/14 14:06:51;;;;;;;16.83;11.83;;;;;;;;;;5045560;28;20225;-85
2022/12/14 14:09:23;;;;;;;16.40;11.20;;;;;;;;;;5041975;28;20280;-83
2022/12/14 14:11:59;;;;;;;17.50;12.33;;;;;;;;;;5046779;28;20254;-83
2022/12/14 14:14:34;;;;;;;14.90;10.97;;;;;;;;;;5042635;28;20183;-84
2022/12/14 14:17:02;;;;;;;12.57;8.33;;;;;;;;;;5046955;28;20193;-84
2022/12/14 14:19:33;;;;;;;15.60;11.80;;;;;;;;;;5046272;28;20229;-84
2022/12/14 14:22:08;;;;;;;20.97;15.97;;;;;;;;;;5045906;28;20189;-82
2022/12/14 14:24:55;;;;;;;33.60;23.30;;;;;;;;;;5046905;28;20204;-84
2022/12/14 14:27:24;;;;;;;18.33;13.03;;;;;;;;;;5045097;28;20193;-84
2022/12/14 14:29:50;;;;;;;18.27;13.20;;;;;;;;;;5048220;28;20247;-84
2022/12/14 14:32:34;;;;;;;17.17;12.70;;;;;;;;;;5046121;28;20182;-83
2022/12/14 14:35:01;;;;;;;14.13;10.47;;;;;;;;;;5028980;28;20245;-84
2022/12/14 14:37:29;;;;;;;17.53;13.00;;;;;;;;;;5011842;28;20191;-84
2022/12/14 14:39:57;;;;;;;17.93;12.20;;;;;;;;;;5009321;28;20182;-84